sensor_id;sensor_type;location;lat;lon;timestamp;temperature;humidity
44695;DHT22;32845;59.422;17.930;2023-03-01T00:03:42;1.50;99.90
44695;DHT22;32845;59.422;17.930;2023-03-01T00:08:12;1.50;99.90
44695;DHT22;32845;59.422;17.930;2023-03-01T00:12:43;1.50;99.90
44695;DHT22;32845;59.422;17.930;2023-03-01T00:17:14;1.60;99.90
44695;DHT22;32845;59.422;17.930;2023-03-01T00:21:45;1.70;99.90
44695;DHT22;32845;59.422;17.930;2023-03-01T00:26:17;1.80;99.90
44695;DHT22;32845;59.422;17.930;2023-03-01T00:30:48;1.90;99.90
44695;DHT22;32845;59.422;17.930;2023-03-01T00:35:19;1.90;99.90
44695;DHT22;32845;59.422;17.930;2023-03-01T00:39:50;1.90;99.90
44695;DHT22;32845;59.422;17.930;2023-03-01T00:44:20;2.00;99.90
44695;DHT22;32845;59.422;17.930;2023-03-01T00:48:51;2.00;99.90
44695;DHT22;32845;59.422;17.930;2023-03-01T00:53:22;1.90;99.90
44695;DHT22;32845;59.422;17.930;2023-03-01T00:57:52;1.90;99.90
44695;DHT22;32845;59.422;17.930;2023-03-01T01:02:23;1.90;99.90
44695;DHT22;32845;59.422;17.930;2023-03-01T01:06:54;1.90;99.90
44695;DHT22;32845;59.422;17.930;2023-03-01T01:11:27;1.90;99.90
44695;DHT22;32845;59.422;17.930;2023-03-01T01:16:01;1.80;99.90
44695;DHT22;32845;59.422;17.930;2023-03-01T01:20:33;1.80;99.90
44695;DHT22;32845;59.422;17.930;2023-03-01T01:25:05;1.80;99.90
44695;DHT22;32845;59.422;17.930;2023-03-01T01:29:36;1.80;99.90
44695;DHT22;32845;59.422;17.930;2023-03-01T01:34:16;1.80;99.90
44695;DHT22;32845;59.422;17.930;2023-03-01T01:38:48;1.80;99.90
44695;DHT22;32845;59.422;17.930;2023-03-01T01:43:22;1.80;99.90
44695;DHT22;32845;59.422;17.930;2023-03-01T01:47:54;1.80;99.90
44695;DHT22;32845;59.422;17.930;2023-03-01T01:52:34;1.80;99.90
44695;DHT22;32845;59.422;17.930;2023-03-01T01:57:10;1.80;99.90
44695;DHT22;32845;59.422;17.930;2023-03-01T02:01:42;1.70;99.90
44695;DHT22;32845;59.422;17.930;2023-03-01T02:11:03;1.60;99.90
44695;DHT22;32845;59.422;17.930;2023-03-01T02:15:35;1.40;99.90
44695;DHT22;32845;59.422;17.930;2023-03-01T02:29:36;0.80;99.90
44695;DHT22;32845;59.422;17.930;2023-03-01T02:34:11;0.90;99.90
44695;DHT22;32845;59.422;17.930;2023-03-01T02:38:42;0.90;99.90
44695;DHT22;32845;59.422;17.930;2023-03-01T02:43:14;0.90;99.90
44695;DHT22;32845;59.422;17.930;2023-03-01T02:47:45;1.00;99.90
44695;DHT22;32845;59.422;17.930;2023-03-01T02:57:22;1.00;99.90
44695;DHT22;32845;59.422;17.930;2023-03-01T03:01:53;1.00;99.90
44695;DHT22;32845;59.422;17.930;2023-03-01T03:06:24;1.00;99.90
44695;DHT22;32845;59.422;17.930;2023-03-01T03:10:55;0.90;99.90
44695;DHT22;32845;59.422;17.930;2023-03-01T03:15:27;0.90;99.90
44695;DHT22;32845;59.422;17.930;2023-03-01T03:19:58;0.80;99.90
44695;DHT22;32845;59.422;17.930;2023-03-01T03:24:28;0.80;99.90
44695;DHT22;32845;59.422;17.930;2023-03-01T03:29:08;0.80;99.90
44695;DHT22;32845;59.422;17.930;2023-03-01T03:33:38;0.70;99.90
44695;DHT22;32845;59.422;17.930;2023-03-01T03:38:11;0.70;99.90
44695;DHT22;32845;59.422;17.930;2023-03-01T03:42:46;0.70;99.90
44695;DHT22;32845;59.422;17.930;2023-03-01T03:47:16;0.70;99.90
44695;DHT22;32845;59.422;17.930;2023-03-01T03:51:47;0.70;99.90
44695;DHT22;32845;59.422;17.930;2023-03-01T03:56:18;0.70;99.90
44695;DHT22;32845;59.422;17.930;2023-03-01T04:00:52;0.60;99.90
44695;DHT22;32845;59.422;17.930;2023-03-01T04:05:23;0.60;99.90
44695;DHT22;32845;59.422;17.930;2023-03-01T04:09:54;0.60;99.90
44695;DHT22;32845;59.422;17.930;2023-03-01T04:14:25;0.60;99.90
44695;DHT22;32845;59.422;17.930;2023-03-01T04:18:55;0.60;99.90
44695;DHT22;32845;59.422;17.930;2023-03-01T04:23:26;0.60;99.90
44695;DHT22;32845;59.422;17.930;2023-03-01T04:27:57;0.60;99.90
44695;DHT22;32845;59.422;17.930;2023-03-01T04:32:28;0.60;99.90
44695;DHT22;32845;59.422;17.930;2023-03-01T04:36:59;0.50;99.90
44695;DHT22;32845;59.422;17.930;2023-03-01T04:41:29;0.40;99.90
44695;DHT22;32845;59.422;17.930;2023-03-01T04:46:02;0.40;99.90
44695;DHT22;32845;59.422;17.930;2023-03-01T04:50:33;0.30;99.90
44695;DHT22;32845;59.422;17.930;2023-03-01T04:55:05;0.30;99.90
44695;DHT22;32845;59.422;17.930;2023-03-01T04:59:36;0.30;99.90
44695;DHT22;32845;59.422;17.930;2023-03-01T05:04:07;0.30;99.90
44695;DHT22;32845;59.422;17.930;2023-03-01T05:08:44;0.30;99.90
44695;DHT22;32845;59.422;17.930;2023-03-01T05:13:15;0.20;99.90
44695;DHT22;32845;59.422;17.930;2023-03-01T05:17:52;0.20;99.90
44695;DHT22;32845;59.422;17.930;2023-03-01T05:22:24;0.30;99.90
44695;DHT22;32845;59.422;17.930;2023-03-01T05:26:55;0.30;99.90
44695;DHT22;32845;59.422;17.930;2023-03-01T05:31:26;0.30;99.90
44695;DHT22;32845;59.422;17.930;2023-03-01T05:35:59;0.30;99.90
44695;DHT22;32845;59.422;17.930;2023-03-01T05:40:33;0.20;99.90
44695;DHT22;32845;59.422;17.930;2023-03-01T05:45:04;0.10;99.90
44695;DHT22;32845;59.422;17.930;2023-03-01T05:49:39;0.10;99.90
44695;DHT22;32845;59.422;17.930;2023-03-01T05:54:10;0.10;99.90
44695;DHT22;32845;59.422;17.930;2023-03-01T05:58:41;-0.10;99.90
44695;DHT22;32845;59.422;17.930;2023-03-01T06:03:12;-0.20;99.90
44695;DHT22;32845;59.422;17.930;2023-03-01T06:07:44;-0.10;99.90
44695;DHT22;32845;59.422;17.930;2023-03-01T06:12:14;-0.10;99.90
44695;DHT22;32845;59.422;17.930;2023-03-01T06:16:45;-0.10;99.90
44695;DHT22;32845;59.422;17.930;2023-03-01T06:21:16;-0.20;99.90
44695;DHT22;32845;59.422;17.930;2023-03-01T06:25:46;-0.30;99.90
44695;DHT22;32845;59.422;17.930;2023-03-01T06:30:18;-0.20;99.90
44695;DHT22;32845;59.422;17.930;2023-03-01T06:34:50;-0.10;99.90
44695;DHT22;32845;59.422;17.930;2023-03-01T06:39:20;0.10;99.90
44695;DHT22;32845;59.422;17.930;2023-03-01T06:43:51;0.20;99.90
44695;DHT22;32845;59.422;17.930;2023-03-01T06:48:27;0.20;99.90
44695;DHT22;32845;59.422;17.930;2023-03-01T06:52:58;0.30;99.90
44695;DHT22;32845;59.422;17.930;2023-03-01T06:57:29;0.40;99.90
44695;DHT22;32845;59.422;17.930;2023-03-01T07:02:00;0.40;99.90
44695;DHT22;32845;59.422;17.930;2023-03-01T07:06:30;0.40;99.90
44695;DHT22;32845;59.422;17.930;2023-03-01T07:11:01;0.50;99.90
44695;DHT22;32845;59.422;17.930;2023-03-01T07:15:33;0.60;99.90
44695;DHT22;32845;59.422;17.930;2023-03-01T07:20:04;0.70;99.90
44695;DHT22;32845;59.422;17.930;2023-03-01T07:24:35;0.80;99.90
44695;DHT22;32845;59.422;17.930;2023-03-01T07:29:07;0.90;99.90
44695;DHT22;32845;59.422;17.930;2023-03-01T07:33:38;1.00;99.90
44695;DHT22;32845;59.422;17.930;2023-03-01T07:38:09;1.00;99.90
44695;DHT22;32845;59.422;17.930;2023-03-01T07:42:40;1.10;99.90
44695;DHT22;32845;59.422;17.930;2023-03-01T07:47:10;1.20;99.90
44695;DHT22;32845;59.422;17.930;2023-03-01T07:51:43;1.30;99.90
44695;DHT22;32845;59.422;17.930;2023-03-01T07:56:15;1.30;99.90
44695;DHT22;32845;59.422;17.930;2023-03-01T08:00:48;1.50;99.90
44695;DHT22;32845;59.422;17.930;2023-03-01T08:05:18;1.60;99.90
44695;DHT22;32845;59.422;17.930;2023-03-01T08:09:49;1.70;99.90
44695;DHT22;32845;59.422;17.930;2023-03-01T08:14:20;1.80;99.90
44695;DHT22;32845;59.422;17.930;2023-03-01T08:18:50;2.00;99.90
44695;DHT22;32845;59.422;17.930;2023-03-01T08:23:21;2.10;99.90
44695;DHT22;32845;59.422;17.930;2023-03-01T08:27:52;2.30;99.90
44695;DHT22;32845;59.422;17.930;2023-03-01T08:32:22;2.40;99.90
44695;DHT22;32845;59.422;17.930;2023-03-01T08:36:53;2.60;99.90
44695;DHT22;32845;59.422;17.930;2023-03-01T08:41:24;2.80;99.90
44695;DHT22;32845;59.422;17.930;2023-03-01T08:45:55;2.90;99.90
44695;DHT22;32845;59.422;17.930;2023-03-01T08:50:26;3.00;99.90
44695;DHT22;32845;59.422;17.930;2023-03-01T08:54:57;3.10;99.90
44695;DHT22;32845;59.422;17.930;2023-03-01T08:59:27;3.30;99.90
44695;DHT22;32845;59.422;17.930;2023-03-01T09:04:00;3.40;99.90
44695;DHT22;32845;59.422;17.930;2023-03-01T09:08:37;3.60;99.90
44695;DHT22;32845;59.422;17.930;2023-03-01T09:13:09;3.70;99.90
44695;DHT22;32845;59.422;17.930;2023-03-01T09:17:39;3.90;99.90
44695;DHT22;32845;59.422;17.930;2023-03-01T09:22:10;4.00;99.90
44695;DHT22;32845;59.422;17.930;2023-03-01T09:26:41;4.10;99.90
44695;DHT22;32845;59.422;17.930;2023-03-01T09:31:13;4.30;99.90
44695;DHT22;32845;59.422;17.930;2023-03-01T09:35:44;4.40;99.90
44695;DHT22;32845;59.422;17.930;2023-03-01T09:40:20;4.60;99.90
44695;DHT22;32845;59.422;17.930;2023-03-01T09:49:30;5.00;99.90
44695;DHT22;32845;59.422;17.930;2023-03-01T09:54:05;5.30;99.90
44695;DHT22;32845;59.422;17.930;2023-03-01T10:03:21;5.80;99.90
44695;DHT22;32845;59.422;17.930;2023-03-01T10:12:41;6.40;99.90
44695;DHT22;32845;59.422;17.930;2023-03-01T10:22:30;7.00;99.90
44695;DHT22;32845;59.422;17.930;2023-03-01T10:27:10;7.40;99.90
44695;DHT22;32845;59.422;17.930;2023-03-01T10:31:48;8.20;99.90
44695;DHT22;32845;59.422;17.930;2023-03-01T10:36:20;9.50;99.90
44695;DHT22;32845;59.422;17.930;2023-03-01T10:41:00;12.50;99.90
44695;DHT22;32845;59.422;17.930;2023-03-01T10:45:39;15.80;99.90
44695;DHT22;32845;59.422;17.930;2023-03-01T10:50:21;18.30;90.60
44695;DHT22;32845;59.422;17.930;2023-03-01T10:54:55;19.70;78.70
44695;DHT22;32845;59.422;17.930;2023-03-01T11:08:45;20.30;70.10
44695;DHT22;32845;59.422;17.930;2023-03-01T11:13:18;19.70;69.10
44695;DHT22;32845;59.422;17.930;2023-03-01T11:17:49;18.90;71.30
44695;DHT22;32845;59.422;17.930;2023-03-01T11:22:22;18.60;72.00
44695;DHT22;32845;59.422;17.930;2023-03-01T11:26:54;19.00;73.50
44695;DHT22;32845;59.422;17.930;2023-03-01T11:31:26;18.60;72.80
44695;DHT22;32845;59.422;17.930;2023-03-01T11:36:05;19.20;75.30
44695;DHT22;32845;59.422;17.930;2023-03-01T11:40:51;20.00;72.60
44695;DHT22;32845;59.422;17.930;2023-03-01T11:45:24;21.50;64.20
44695;DHT22;32845;59.422;17.930;2023-03-01T12:00:00;24.80;57.60
44695;DHT22;32845;59.422;17.930;2023-03-01T12:04:58;25.10;54.40
44695;DHT22;32845;59.422;17.930;2023-03-01T12:43:37;22.30;56.40
44695;DHT22;32845;59.422;17.930;2023-03-01T12:53:02;21.30;58.50
44695;DHT22;32845;59.422;17.930;2023-03-01T12:57:48;20.80;58.90
44695;DHT22;32845;59.422;17.930;2023-03-01T13:02:33;20.30;59.40
44695;DHT22;32845;59.422;17.930;2023-03-01T13:07:41;20.00;61.50
44695;DHT22;32845;59.422;17.930;2023-03-01T13:17:30;19.00;62.70
44695;DHT22;32845;59.422;17.930;2023-03-01T13:22:25;18.70;63.20
44695;DHT22;32845;59.422;17.930;2023-03-01T13:27:21;18.00;65.40
44695;DHT22;32845;59.422;17.930;2023-03-01T13:31:57;17.70;66.00
44695;DHT22;32845;59.422;17.930;2023-03-01T13:41:00;17.20;68.80
44695;DHT22;32845;59.422;17.930;2023-03-01T13:45:41;16.60;69.60
44695;DHT22;32845;59.422;17.930;2023-03-01T13:50:23;16.50;69.90
44695;DHT22;32845;59.422;17.930;2023-03-01T13:54:55;16.10;70.30
44695;DHT22;32845;59.422;17.930;2023-03-01T13:59:27;15.90;70.70
44695;DHT22;32845;59.422;17.930;2023-03-01T14:04:16;16.00;72.30
44695;DHT22;32845;59.422;17.930;2023-03-01T14:08:52;15.70;72.70
44695;DHT22;32845;59.422;17.930;2023-03-01T14:13:31;14.60;73.70
44695;DHT22;32845;59.422;17.930;2023-03-01T14:18:47;13.80;75.40
44695;DHT22;32845;59.422;17.930;2023-03-01T14:23:13;13.00;77.60
44695;DHT22;32845;59.422;17.930;2023-03-01T14:27:52;12.30;78.80
44695;DHT22;32845;59.422;17.930;2023-03-01T14:32:30;11.80;80.10
44695;DHT22;32845;59.422;17.930;2023-03-01T14:37:32;11.30;81.40
44695;DHT22;32845;59.422;17.930;2023-03-01T14:42:04;10.90;82.30
44695;DHT22;32845;59.422;17.930;2023-03-01T14:46:38;10.70;84.00
44695;DHT22;32845;59.422;17.930;2023-03-01T14:51:11;10.40;85.30
44695;DHT22;32845;59.422;17.930;2023-03-01T14:55:46;10.30;85.50
44695;DHT22;32845;59.422;17.930;2023-03-01T15:00:21;10.10;85.90
44695;DHT22;32845;59.422;17.930;2023-03-01T15:04:56;9.90;87.00
44695;DHT22;32845;59.422;17.930;2023-03-01T15:09:27;9.80;87.40
44695;DHT22;32845;59.422;17.930;2023-03-01T15:13:59;9.70;87.40
44695;DHT22;32845;59.422;17.930;2023-03-01T15:18:30;9.60;87.60
44695;DHT22;32845;59.422;17.930;2023-03-01T15:23:01;9.60;88.00
44695;DHT22;32845;59.422;17.930;2023-03-01T15:27:32;9.40;89.00
44695;DHT22;32845;59.422;17.930;2023-03-01T15:32:05;9.30;89.20
44695;DHT22;32845;59.422;17.930;2023-03-01T15:36:45;9.30;89.60
44695;DHT22;32845;59.422;17.930;2023-03-01T15:41:48;9.20;89.80
44695;DHT22;32845;59.422;17.930;2023-03-01T15:50:58;9.00;90.20
44695;DHT22;32845;59.422;17.930;2023-03-01T15:55:31;8.90;90.40
44695;DHT22;32845;59.422;17.930;2023-03-01T16:00:04;8.80;90.40
44695;DHT22;32845;59.422;17.930;2023-03-01T16:04:41;8.80;90.50
44695;DHT22;32845;59.422;17.930;2023-03-01T16:09:12;8.70;90.60
44695;DHT22;32845;59.422;17.930;2023-03-01T16:13:43;8.60;90.80
44695;DHT22;32845;59.422;17.930;2023-03-01T16:18:14;8.60;90.90
44695;DHT22;32845;59.422;17.930;2023-03-01T16:22:46;8.50;91.00
44695;DHT22;32845;59.422;17.930;2023-03-01T16:27:16;8.40;91.20
44695;DHT22;32845;59.422;17.930;2023-03-01T16:31:47;8.30;91.30
44695;DHT22;32845;59.422;17.930;2023-03-01T16:36:20;8.30;91.40
44695;DHT22;32845;59.422;17.930;2023-03-01T16:40:51;8.30;91.50
44695;DHT22;32845;59.422;17.930;2023-03-01T16:45:22;8.20;91.60
44695;DHT22;32845;59.422;17.930;2023-03-01T16:49:53;8.20;91.50
44695;DHT22;32845;59.422;17.930;2023-03-01T16:54:24;8.10;91.90
44695;DHT22;32845;59.422;17.930;2023-03-01T16:58:55;8.10;91.90
44695;DHT22;32845;59.422;17.930;2023-03-01T17:03:26;8.10;92.30
44695;DHT22;32845;59.422;17.930;2023-03-01T17:07:56;7.90;92.30
44695;DHT22;32845;59.422;17.930;2023-03-01T17:12:30;7.80;92.80
44695;DHT22;32845;59.422;17.930;2023-03-01T17:17:02;7.70;93.20
44695;DHT22;32845;59.422;17.930;2023-03-01T17:21:33;7.60;93.30
44695;DHT22;32845;59.422;17.930;2023-03-01T17:26:04;7.50;93.50
44695;DHT22;32845;59.422;17.930;2023-03-01T17:30:35;7.40;94.10
44695;DHT22;32845;59.422;17.930;2023-03-01T17:35:06;7.30;94.20
44695;DHT22;32845;59.422;17.930;2023-03-01T17:39:37;7.30;94.40
44695;DHT22;32845;59.422;17.930;2023-03-01T17:44:08;7.20;94.70
44695;DHT22;32845;59.422;17.930;2023-03-01T17:48:39;7.10;94.60
44695;DHT22;32845;59.422;17.930;2023-03-01T17:53:09;7.10;94.90
44695;DHT22;32845;59.422;17.930;2023-03-01T17:57:41;7.10;95.30
44695;DHT22;32845;59.422;17.930;2023-03-01T18:02:12;7.00;95.40
44695;DHT22;32845;59.422;17.930;2023-03-01T18:06:43;7.00;95.80
44695;DHT22;32845;59.422;17.930;2023-03-01T18:11:14;7.00;95.80
44695;DHT22;32845;59.422;17.930;2023-03-01T18:15:44;7.00;96.00
44695;DHT22;32845;59.422;17.930;2023-03-01T18:20:15;7.00;95.90
44695;DHT22;32845;59.422;17.930;2023-03-01T18:24:47;7.00;96.00
44695;DHT22;32845;59.422;17.930;2023-03-01T18:29:18;7.00;96.20
44695;DHT22;32845;59.422;17.930;2023-03-01T18:33:51;7.00;96.30
44695;DHT22;32845;59.422;17.930;2023-03-01T18:38:23;7.00;96.60
44695;DHT22;32845;59.422;17.930;2023-03-01T18:42:53;7.00;96.80
44695;DHT22;32845;59.422;17.930;2023-03-01T18:47:24;6.90;96.90
44695;DHT22;32845;59.422;17.930;2023-03-01T18:51:56;7.00;97.30
44695;DHT22;32845;59.422;17.930;2023-03-01T18:56:31;6.90;97.30
44695;DHT22;32845;59.422;17.930;2023-03-01T19:01:02;6.90;97.60
44695;DHT22;32845;59.422;17.930;2023-03-01T19:05:35;6.90;97.70
44695;DHT22;32845;59.422;17.930;2023-03-01T19:10:10;6.90;97.90
44695;DHT22;32845;59.422;17.930;2023-03-01T19:14:41;6.90;98.00
44695;DHT22;32845;59.422;17.930;2023-03-01T19:19:11;6.90;98.40
44695;DHT22;32845;59.422;17.930;2023-03-01T19:23:42;6.90;98.50
44695;DHT22;32845;59.422;17.930;2023-03-01T19:28:13;6.90;98.60
44695;DHT22;32845;59.422;17.930;2023-03-01T19:32:44;6.90;98.90
44695;DHT22;32845;59.422;17.930;2023-03-01T19:37:15;6.90;99.20
44695;DHT22;32845;59.422;17.930;2023-03-01T19:41:46;6.90;99.30
44695;DHT22;32845;59.422;17.930;2023-03-01T19:46:16;6.90;99.60
44695;DHT22;32845;59.422;17.930;2023-03-01T19:50:48;6.90;99.90
44695;DHT22;32845;59.422;17.930;2023-03-01T19:55:20;6.80;99.90
44695;DHT22;32845;59.422;17.930;2023-03-01T19:59:51;6.80;99.90
44695;DHT22;32845;59.422;17.930;2023-03-01T20:04:22;6.70;99.90
44695;DHT22;32845;59.422;17.930;2023-03-01T20:08:52;6.70;99.90
44695;DHT22;32845;59.422;17.930;2023-03-01T20:13:23;6.60;99.90
44695;DHT22;32845;59.422;17.930;2023-03-01T20:17:54;6.60;99.90
44695;DHT22;32845;59.422;17.930;2023-03-01T20:22:25;6.70;99.90
44695;DHT22;32845;59.422;17.930;2023-03-01T20:26:55;6.60;99.90
44695;DHT22;32845;59.422;17.930;2023-03-01T20:31:26;6.60;99.90
44695;DHT22;32845;59.422;17.930;2023-03-01T20:35:58;6.50;99.90
44695;DHT22;32845;59.422;17.930;2023-03-01T20:40:30;6.50;99.90
44695;DHT22;32845;59.422;17.930;2023-03-01T20:45:01;6.50;99.90
44695;DHT22;32845;59.422;17.930;2023-03-01T20:49:32;6.40;99.90
44695;DHT22;32845;59.422;17.930;2023-03-01T20:54:02;6.40;99.90
44695;DHT22;32845;59.422;17.930;2023-03-01T20:58:34;6.30;99.90
44695;DHT22;32845;59.422;17.930;2023-03-01T21:03:05;6.30;99.90
44695;DHT22;32845;59.422;17.930;2023-03-01T21:07:36;6.20;99.90
44695;DHT22;32845;59.422;17.930;2023-03-01T21:12:07;6.10;99.90
44695;DHT22;32845;59.422;17.930;2023-03-01T21:16:39;6.00;99.90
44695;DHT22;32845;59.422;17.930;2023-03-01T21:21:13;6.00;99.90
44695;DHT22;32845;59.422;17.930;2023-03-01T21:25:44;5.90;99.90
44695;DHT22;32845;59.422;17.930;2023-03-01T21:30:15;5.80;99.90
44695;DHT22;32845;59.422;17.930;2023-03-01T21:34:45;5.50;99.90
44695;DHT22;32845;59.422;17.930;2023-03-01T21:39:16;5.30;99.90
44695;DHT22;32845;59.422;17.930;2023-03-01T21:43:48;5.20;99.90
44695;DHT22;32845;59.422;17.930;2023-03-01T21:48:19;5.00;99.90
44695;DHT22;32845;59.422;17.930;2023-03-01T21:52:50;4.80;99.90
44695;DHT22;32845;59.422;17.930;2023-03-01T21:57:21;4.60;99.90
44695;DHT22;32845;59.422;17.930;2023-03-01T22:01:52;4.40;99.90
44695;DHT22;32845;59.422;17.930;2023-03-01T22:06:28;4.30;99.90
44695;DHT22;32845;59.422;17.930;2023-03-01T22:11:01;4.30;99.90
44695;DHT22;32845;59.422;17.930;2023-03-01T22:15:32;4.40;99.90
44695;DHT22;32845;59.422;17.930;2023-03-01T22:20:03;4.50;99.90
44695;DHT22;32845;59.422;17.930;2023-03-01T22:24:34;4.60;99.90
44695;DHT22;32845;59.422;17.930;2023-03-01T22:29:11;4.70;99.90
44695;DHT22;32845;59.422;17.930;2023-03-01T22:33:42;4.80;99.90
44695;DHT22;32845;59.422;17.930;2023-03-01T22:38:14;4.90;99.90
44695;DHT22;32845;59.422;17.930;2023-03-01T22:42:45;5.00;99.90
44695;DHT22;32845;59.422;17.930;2023-03-01T22:47:15;5.10;99.90
44695;DHT22;32845;59.422;17.930;2023-03-01T22:51:46;5.10;99.90
44695;DHT22;32845;59.422;17.930;2023-03-01T22:56:20;5.10;99.90
44695;DHT22;32845;59.422;17.930;2023-03-01T23:00:51;5.20;99.90
44695;DHT22;32845;59.422;17.930;2023-03-01T23:05:21;5.20;99.90
44695;DHT22;32845;59.422;17.930;2023-03-01T23:09:52;5.20;99.90
44695;DHT22;32845;59.422;17.930;2023-03-01T23:14:25;5.20;99.90
44695;DHT22;32845;59.422;17.930;2023-03-01T23:18:56;5.20;99.90
44695;DHT22;32845;59.422;17.930;2023-03-01T23:23:29;5.20;99.90
44695;DHT22;32845;59.422;17.930;2023-03-01T23:28:00;5.20;99.90
44695;DHT22;32845;59.422;17.930;2023-03-01T23:32:31;5.10;99.90
44695;DHT22;32845;59.422;17.930;2023-03-01T23:37:03;5.00;99.90
44695;DHT22;32845;59.422;17.930;2023-03-01T23:41:34;4.90;99.90
44695;DHT22;32845;59.422;17.930;2023-03-01T23:46:04;4.90;99.90
44695;DHT22;32845;59.422;17.930;2023-03-01T23:50:35;4.80;99.90
44695;DHT22;32845;59.422;17.930;2023-03-01T23:55:13;4.70;99.90
44695;DHT22;32845;59.422;17.930;2023-03-01T23:59:50;4.60;99.90
